sensor_id;sensor_type;location;lat;lon;timestamp;P1;durP1;ratioP1;P2;durP2;ratioP2
20207;SDS011;10263;48.716;8.760;2023-03-01T00:01:16;12.50;;;8.37;;
20207;SDS011;10263;48.716;8.760;2023-03-01T00:03:44;13.10;;;8.40;;
20207;SDS011;10263;48.716;8.760;2023-03-01T00:06:13;12.20;;;8.57;;
20207;SDS011;10263;48.716;8.760;2023-03-01T00:08:40;12.33;;;7.37;;
20207;SDS011;10263;48.716;8.760;2023-03-01T00:11:08;10.57;;;7.10;;
20207;SDS011;10263;48.716;8.760;2023-03-01T00:13:39;9.63;;;7.40;;
20207;SDS011;10263;48.716;8.760;2023-03-01T00:16:07;12.33;;;8.40;;
20207;SDS011;10263;48.716;8.760;2023-03-01T00:18:35;10.30;;;7.60;;
20207;SDS011;10263;48.716;8.760;2023-03-01T00:21:02;13.90;;;7.47;;
20207;SDS011;10263;48.716;8.760;2023-03-01T00:23:31;12.90;;;8.47;;
20207;SDS011;10263;48.716;8.760;2023-03-01T00:26:00;13.03;;;8.10;;
20207;SDS011;10263;48.716;8.760;2023-03-01T00:28:26;11.30;;;7.73;;
20207;SDS011;10263;48.716;8.760;2023-03-01T00:30:53;10.47;;;7.07;;
20207;SDS011;10263;48.716;8.760;2023-03-01T00:33:20;16.40;;;8.47;;
20207;SDS011;10263;48.716;8.760;2023-03-01T00:35:47;12.53;;;7.70;;
20207;SDS011;10263;48.716;8.760;2023-03-01T00:38:13;11.27;;;7.97;;
20207;SDS011;10263;48.716;8.760;2023-03-01T00:40:41;11.07;;;7.60;;
20207;SDS011;10263;48.716;8.760;2023-03-01T00:43:09;9.93;;;7.83;;
20207;SDS011;10263;48.716;8.760;2023-03-01T00:45:35;10.63;;;7.43;;
20207;SDS011;10263;48.716;8.760;2023-03-01T00:48:02;12.70;;;8.87;;
20207;SDS011;10263;48.716;8.760;2023-03-01T00:50:30;12.20;;;8.50;;
20207;SDS011;10263;48.716;8.760;2023-03-01T00:52:57;14.03;;;8.10;;
20207;SDS011;10263;48.716;8.760;2023-03-01T00:55:24;13.70;;;8.83;;
20207;SDS011;10263;48.716;8.760;2023-03-01T00:57:52;12.90;;;8.07;;
20207;SDS011;10263;48.716;8.760;2023-03-01T01:00:19;13.33;;;8.07;;
20207;SDS011;10263;48.716;8.760;2023-03-01T01:02:47;14.70;;;8.47;;
20207;SDS011;10263;48.716;8.760;2023-03-01T01:05:14;13.03;;;8.60;;
20207;SDS011;10263;48.716;8.760;2023-03-01T01:07:46;11.90;;;8.47;;
20207;SDS011;10263;48.716;8.760;2023-03-01T01:10:13;12.23;;;8.40;;
20207;SDS011;10263;48.716;8.760;2023-03-01T01:12:42;14.10;;;8.43;;
20207;SDS011;10263;48.716;8.760;2023-03-01T01:15:12;12.43;;;8.67;;
20207;SDS011;10263;48.716;8.760;2023-03-01T01:17:41;12.87;;;9.20;;
20207;SDS011;10263;48.716;8.760;2023-03-01T01:20:09;13.67;;;9.33;;
20207;SDS011;10263;48.716;8.760;2023-03-01T01:22:36;13.90;;;9.53;;
20207;SDS011;10263;48.716;8.760;2023-03-01T01:25:03;14.43;;;8.67;;
20207;SDS011;10263;48.716;8.760;2023-03-01T01:27:31;16.00;;;8.43;;
20207;SDS011;10263;48.716;8.760;2023-03-01T01:29:58;13.27;;;8.50;;
20207;SDS011;10263;48.716;8.760;2023-03-01T01:32:26;12.43;;;8.20;;
20207;SDS011;10263;48.716;8.760;2023-03-01T01:34:53;12.23;;;8.47;;
20207;SDS011;10263;48.716;8.760;2023-03-01T01:37:19;12.27;;;8.30;;
20207;SDS011;10263;48.716;8.760;2023-03-01T01:39:47;13.07;;;9.00;;
20207;SDS011;10263;48.716;8.760;2023-03-01T01:42:14;13.53;;;8.80;;
20207;SDS011;10263;48.716;8.760;2023-03-01T01:44:44;11.33;;;8.17;;
20207;SDS011;10263;48.716;8.760;2023-03-01T01:47:12;12.07;;;8.23;;
20207;SDS011;10263;48.716;8.760;2023-03-01T01:49:46;14.13;;;9.00;;
20207;SDS011;10263;48.716;8.760;2023-03-01T01:52:16;12.17;;;8.30;;
20207;SDS011;10263;48.716;8.760;2023-03-01T01:54:47;13.07;;;8.43;;
20207;SDS011;10263;48.716;8.760;2023-03-01T01:57:18;15.13;;;9.57;;
20207;SDS011;10263;48.716;8.760;2023-03-01T01:59:49;13.83;;;9.10;;
20207;SDS011;10263;48.716;8.760;2023-03-01T02:02:17;14.37;;;8.70;;
20207;SDS011;10263;48.716;8.760;2023-03-01T02:04:46;13.50;;;9.23;;
20207;SDS011;10263;48.716;8.760;2023-03-01T02:07:17;13.60;;;9.07;;
20207;SDS011;10263;48.716;8.760;2023-03-01T02:09:48;13.37;;;8.77;;
20207;SDS011;10263;48.716;8.760;2023-03-01T02:12:18;14.33;;;9.30;;
20207;SDS011;10263;48.716;8.760;2023-03-01T02:14:48;13.97;;;9.17;;
20207;SDS011;10263;48.716;8.760;2023-03-01T02:17:15;13.83;;;9.40;;
20207;SDS011;10263;48.716;8.760;2023-03-01T02:19:51;14.40;;;9.93;;
20207;SDS011;10263;48.716;8.760;2023-03-01T02:22:24;12.90;;;9.13;;
20207;SDS011;10263;48.716;8.760;2023-03-01T02:24:58;14.87;;;9.67;;
20207;SDS011;10263;48.716;8.760;2023-03-01T02:27:36;15.33;;;9.33;;
20207;SDS011;10263;48.716;8.760;2023-03-01T02:30:10;13.77;;;9.93;;
20207;SDS011;10263;48.716;8.760;2023-03-01T02:32:38;15.27;;;9.37;;
20207;SDS011;10263;48.716;8.760;2023-03-01T02:35:07;14.87;;;9.53;;
20207;SDS011;10263;48.716;8.760;2023-03-01T02:37:37;13.67;;;9.87;;
20207;SDS011;10263;48.716;8.760;2023-03-01T02:40:06;13.47;;;9.47;;
20207;SDS011;10263;48.716;8.760;2023-03-01T02:42:40;15.13;;;9.93;;
20207;SDS011;10263;48.716;8.760;2023-03-01T02:45:14;15.87;;;10.03;;
20207;SDS011;10263;48.716;8.760;2023-03-01T02:47:41;14.50;;;10.13;;
20207;SDS011;10263;48.716;8.760;2023-03-01T02:50:11;14.73;;;10.60;;
20207;SDS011;10263;48.716;8.760;2023-03-01T02:52:51;14.97;;;10.13;;
20207;SDS011;10263;48.716;8.760;2023-03-01T02:55:23;16.93;;;10.47;;
20207;SDS011;10263;48.716;8.760;2023-03-01T02:57:50;14.60;;;9.90;;
20207;SDS011;10263;48.716;8.760;2023-03-01T03:00:20;12.10;;;8.57;;
20207;SDS011;10263;48.716;8.760;2023-03-01T03:02:51;12.27;;;8.77;;
20207;SDS011;10263;48.716;8.760;2023-03-01T03:05:23;13.77;;;9.13;;
20207;SDS011;10263;48.716;8.760;2023-03-01T03:07:54;14.07;;;9.37;;
20207;SDS011;10263;48.716;8.760;2023-03-01T03:10:23;17.40;;;10.10;;
20207;SDS011;10263;48.716;8.760;2023-03-01T03:12:52;12.50;;;8.67;;
20207;SDS011;10263;48.716;8.760;2023-03-01T03:15:22;14.90;;;9.97;;
20207;SDS011;10263;48.716;8.760;2023-03-01T03:17:50;16.63;;;10.53;;
20207;SDS011;10263;48.716;8.760;2023-03-01T03:20:19;17.97;;;10.63;;
20207;SDS011;10263;48.716;8.760;2023-03-01T03:22:48;13.33;;;9.33;;
20207;SDS011;10263;48.716;8.760;2023-03-01T03:25:17;16.40;;;11.17;;
20207;SDS011;10263;48.716;8.760;2023-03-01T03:27:45;17.43;;;11.07;;
20207;SDS011;10263;48.716;8.760;2023-03-01T03:30:14;14.73;;;9.63;;
20207;SDS011;10263;48.716;8.760;2023-03-01T03:32:45;13.90;;;9.77;;
20207;SDS011;10263;48.716;8.760;2023-03-01T03:35:17;14.37;;;10.37;;
20207;SDS011;10263;48.716;8.760;2023-03-01T03:37:45;13.17;;;9.30;;
20207;SDS011;10263;48.716;8.760;2023-03-01T03:40:32;17.70;;;9.67;;
20207;SDS011;10263;48.716;8.760;2023-03-01T03:43:00;15.63;;;10.37;;
20207;SDS011;10263;48.716;8.760;2023-03-01T03:45:28;15.57;;;11.00;;
20207;SDS011;10263;48.716;8.760;2023-03-01T03:47:56;16.93;;;10.80;;
20207;SDS011;10263;48.716;8.760;2023-03-01T03:50:23;16.20;;;10.73;;
20207;SDS011;10263;48.716;8.760;2023-03-01T03:52:50;14.83;;;11.10;;
20207;SDS011;10263;48.716;8.760;2023-03-01T03:55:18;13.20;;;9.77;;
20207;SDS011;10263;48.716;8.760;2023-03-01T03:57:45;16.10;;;10.43;;
20207;SDS011;10263;48.716;8.760;2023-03-01T04:00:17;14.47;;;10.73;;
20207;SDS011;10263;48.716;8.760;2023-03-01T04:02:46;15.47;;;9.90;;
20207;SDS011;10263;48.716;8.760;2023-03-01T04:05:15;16.47;;;11.60;;
20207;SDS011;10263;48.716;8.760;2023-03-01T04:07:44;15.60;;;10.10;;
20207;SDS011;10263;48.716;8.760;2023-03-01T04:10:12;14.50;;;10.50;;
20207;SDS011;10263;48.716;8.760;2023-03-01T04:12:40;16.10;;;10.67;;
20207;SDS011;10263;48.716;8.760;2023-03-01T04:15:08;17.57;;;10.40;;
20207;SDS011;10263;48.716;8.760;2023-03-01T04:17:38;17.67;;;11.67;;
20207;SDS011;10263;48.716;8.760;2023-03-01T04:20:07;13.67;;;10.27;;
20207;SDS011;10263;48.716;8.760;2023-03-01T04:22:37;17.30;;;11.37;;
20207;SDS011;10263;48.716;8.760;2023-03-01T04:25:05;19.87;;;11.77;;
20207;SDS011;10263;48.716;8.760;2023-03-01T04:27:33;17.93;;;10.57;;
20207;SDS011;10263;48.716;8.760;2023-03-01T04:29:59;15.10;;;10.90;;
20207;SDS011;10263;48.716;8.760;2023-03-01T04:32:27;17.10;;;11.53;;
20207;SDS011;10263;48.716;8.760;2023-03-01T04:34:54;17.73;;;11.13;;
20207;SDS011;10263;48.716;8.760;2023-03-01T04:37:21;14.63;;;11.17;;
20207;SDS011;10263;48.716;8.760;2023-03-01T04:39:50;17.57;;;11.40;;
20207;SDS011;10263;48.716;8.760;2023-03-01T04:42:17;15.53;;;11.27;;
20207;SDS011;10263;48.716;8.760;2023-03-01T04:44:45;17.20;;;11.10;;
20207;SDS011;10263;48.716;8.760;2023-03-01T04:47:12;15.10;;;10.87;;
20207;SDS011;10263;48.716;8.760;2023-03-01T04:49:39;17.93;;;10.73;;
20207;SDS011;10263;48.716;8.760;2023-03-01T04:52:06;15.93;;;10.57;;
20207;SDS011;10263;48.716;8.760;2023-03-01T04:54:34;14.93;;;10.10;;
20207;SDS011;10263;48.716;8.760;2023-03-01T04:57:03;15.20;;;10.87;;
20207;SDS011;10263;48.716;8.760;2023-03-01T04:59:30;15.80;;;11.10;;
20207;SDS011;10263;48.716;8.760;2023-03-01T05:01:57;16.47;;;11.13;;
20207;SDS011;10263;48.716;8.760;2023-03-01T05:04:25;17.13;;;11.90;;
20207;SDS011;10263;48.716;8.760;2023-03-01T05:06:52;16.03;;;11.13;;
20207;SDS011;10263;48.716;8.760;2023-03-01T05:09:21;15.73;;;10.80;;
20207;SDS011;10263;48.716;8.760;2023-03-01T05:11:48;18.77;;;11.07;;
20207;SDS011;10263;48.716;8.760;2023-03-01T05:14:18;18.43;;;12.07;;
20207;SDS011;10263;48.716;8.760;2023-03-01T05:16:44;16.07;;;11.37;;
20207;SDS011;10263;48.716;8.760;2023-03-01T05:19:12;16.63;;;11.00;;
20207;SDS011;10263;48.716;8.760;2023-03-01T05:21:40;16.60;;;12.00;;
20207;SDS011;10263;48.716;8.760;2023-03-01T05:24:21;16.40;;;11.30;;
20207;SDS011;10263;48.716;8.760;2023-03-01T05:26:48;15.37;;;10.87;;
20207;SDS011;10263;48.716;8.760;2023-03-01T05:29:18;16.17;;;10.03;;
20207;SDS011;10263;48.716;8.760;2023-03-01T05:31:50;15.80;;;11.50;;
20207;SDS011;10263;48.716;8.760;2023-03-01T05:34:18;16.20;;;11.63;;
20207;SDS011;10263;48.716;8.760;2023-03-01T05:36:48;15.60;;;11.63;;
20207;SDS011;10263;48.716;8.760;2023-03-01T05:39:16;19.20;;;12.17;;
20207;SDS011;10263;48.716;8.760;2023-03-01T05:41:43;17.93;;;12.07;;
20207;SDS011;10263;48.716;8.760;2023-03-01T05:44:09;16.83;;;10.80;;
20207;SDS011;10263;48.716;8.760;2023-03-01T05:46:38;14.83;;;11.30;;
20207;SDS011;10263;48.716;8.760;2023-03-01T05:49:05;17.53;;;11.00;;
20207;SDS011;10263;48.716;8.760;2023-03-01T05:51:32;16.27;;;12.13;;
20207;SDS011;10263;48.716;8.760;2023-03-01T05:53:59;15.27;;;11.10;;
20207;SDS011;10263;48.716;8.760;2023-03-01T05:56:26;17.23;;;11.73;;
20207;SDS011;10263;48.716;8.760;2023-03-01T05:58:54;17.70;;;12.27;;
20207;SDS011;10263;48.716;8.760;2023-03-01T06:01:21;18.17;;;12.27;;
20207;SDS011;10263;48.716;8.760;2023-03-01T06:03:49;17.03;;;11.93;;
20207;SDS011;10263;48.716;8.760;2023-03-01T06:06:16;18.20;;;11.83;;
20207;SDS011;10263;48.716;8.760;2023-03-01T06:08:43;18.03;;;12.20;;
20207;SDS011;10263;48.716;8.760;2023-03-01T06:11:10;17.73;;;12.37;;
20207;SDS011;10263;48.716;8.760;2023-03-01T06:13:37;20.03;;;12.63;;
20207;SDS011;10263;48.716;8.760;2023-03-01T06:16:04;18.73;;;13.17;;
20207;SDS011;10263;48.716;8.760;2023-03-01T06:18:32;19.13;;;12.53;;
20207;SDS011;10263;48.716;8.760;2023-03-01T06:21:00;18.70;;;12.23;;
20207;SDS011;10263;48.716;8.760;2023-03-01T06:23:27;19.13;;;12.60;;
20207;SDS011;10263;48.716;8.760;2023-03-01T06:25:55;16.23;;;12.50;;
20207;SDS011;10263;48.716;8.760;2023-03-01T06:28:22;20.00;;;13.17;;
20207;SDS011;10263;48.716;8.760;2023-03-01T06:30:50;20.33;;;13.30;;
20207;SDS011;10263;48.716;8.760;2023-03-01T06:33:17;17.47;;;11.80;;
20207;SDS011;10263;48.716;8.760;2023-03-01T06:35:45;16.33;;;11.57;;
20207;SDS011;10263;48.716;8.760;2023-03-01T06:38:13;14.90;;;10.83;;
20207;SDS011;10263;48.716;8.760;2023-03-01T06:40:42;19.30;;;12.77;;
20207;SDS011;10263;48.716;8.760;2023-03-01T06:43:09;18.93;;;12.30;;
20207;SDS011;10263;48.716;8.760;2023-03-01T06:45:36;16.47;;;11.10;;
20207;SDS011;10263;48.716;8.760;2023-03-01T06:48:04;18.73;;;11.67;;
20207;SDS011;10263;48.716;8.760;2023-03-01T06:50:33;14.97;;;11.00;;
20207;SDS011;10263;48.716;8.760;2023-03-01T06:53:02;17.90;;;12.53;;
20207;SDS011;10263;48.716;8.760;2023-03-01T06:55:31;17.17;;;12.17;;
20207;SDS011;10263;48.716;8.760;2023-03-01T06:57:58;16.00;;;11.27;;
20207;SDS011;10263;48.716;8.760;2023-03-01T07:00:27;20.20;;;12.73;;
20207;SDS011;10263;48.716;8.760;2023-03-01T07:02:54;16.10;;;11.33;;
20207;SDS011;10263;48.716;8.760;2023-03-01T07:05:21;18.23;;;11.47;;
20207;SDS011;10263;48.716;8.760;2023-03-01T07:07:48;14.47;;;11.10;;
20207;SDS011;10263;48.716;8.760;2023-03-01T07:10:15;16.50;;;11.80;;
20207;SDS011;10263;48.716;8.760;2023-03-01T07:12:44;19.03;;;12.33;;
20207;SDS011;10263;48.716;8.760;2023-03-01T07:15:11;16.27;;;11.90;;
20207;SDS011;10263;48.716;8.760;2023-03-01T07:17:40;16.17;;;11.17;;
20207;SDS011;10263;48.716;8.760;2023-03-01T07:20:10;16.10;;;11.33;;
20207;SDS011;10263;48.716;8.760;2023-03-01T07:22:39;16.53;;;11.67;;
20207;SDS011;10263;48.716;8.760;2023-03-01T07:25:06;15.20;;;11.57;;
20207;SDS011;10263;48.716;8.760;2023-03-01T07:27:33;19.27;;;12.57;;
20207;SDS011;10263;48.716;8.760;2023-03-01T07:30:02;17.50;;;11.43;;
20207;SDS011;10263;48.716;8.760;2023-03-01T07:32:30;14.20;;;11.00;;
20207;SDS011;10263;48.716;8.760;2023-03-01T07:34:57;18.23;;;11.47;;
20207;SDS011;10263;48.716;8.760;2023-03-01T07:37:24;22.27;;;12.77;;
20207;SDS011;10263;48.716;8.760;2023-03-01T07:39:51;15.87;;;11.33;;
20207;SDS011;10263;48.716;8.760;2023-03-01T07:42:18;16.53;;;11.90;;
20207;SDS011;10263;48.716;8.760;2023-03-01T07:44:45;15.40;;;10.40;;
20207;SDS011;10263;48.716;8.760;2023-03-01T07:47:13;17.80;;;11.67;;
20207;SDS011;10263;48.716;8.760;2023-03-01T07:49:40;16.00;;;11.80;;
20207;SDS011;10263;48.716;8.760;2023-03-01T07:52:09;19.40;;;11.77;;
20207;SDS011;10263;48.716;8.760;2023-03-01T07:54:36;14.37;;;10.90;;
20207;SDS011;10263;48.716;8.760;2023-03-01T07:57:03;17.30;;;11.27;;
20207;SDS011;10263;48.716;8.760;2023-03-01T07:59:30;18.23;;;11.93;;
20207;SDS011;10263;48.716;8.760;2023-03-01T08:01:57;14.50;;;11.00;;
20207;SDS011;10263;48.716;8.760;2023-03-01T08:04:25;12.73;;;9.90;;
20207;SDS011;10263;48.716;8.760;2023-03-01T08:06:52;16.70;;;11.17;;
20207;SDS011;10263;48.716;8.760;2023-03-01T08:09:19;18.00;;;11.53;;
20207;SDS011;10263;48.716;8.760;2023-03-01T08:11:46;13.30;;;10.70;;
20207;SDS011;10263;48.716;8.760;2023-03-01T08:14:13;16.30;;;11.80;;
20207;SDS011;10263;48.716;8.760;2023-03-01T08:16:40;17.37;;;11.43;;
20207;SDS011;10263;48.716;8.760;2023-03-01T08:19:07;17.07;;;11.07;;
20207;SDS011;10263;48.716;8.760;2023-03-01T08:21:36;15.63;;;10.80;;
20207;SDS011;10263;48.716;8.760;2023-03-01T08:24:04;15.43;;;10.97;;
20207;SDS011;10263;48.716;8.760;2023-03-01T08:26:32;16.13;;;11.77;;
20207;SDS011;10263;48.716;8.760;2023-03-01T08:28:59;18.43;;;12.67;;
20207;SDS011;10263;48.716;8.760;2023-03-01T08:31:30;16.53;;;11.17;;
20207;SDS011;10263;48.716;8.760;2023-03-01T08:34:01;15.60;;;9.63;;
20207;SDS011;10263;48.716;8.760;2023-03-01T08:36:30;18.20;;;12.17;;
20207;SDS011;10263;48.716;8.760;2023-03-01T08:39:00;18.63;;;11.93;;
20207;SDS011;10263;48.716;8.760;2023-03-01T08:41:26;18.40;;;12.50;;
20207;SDS011;10263;48.716;8.760;2023-03-01T08:43:54;16.93;;;10.80;;
20207;SDS011;10263;48.716;8.760;2023-03-01T08:46:23;17.17;;;11.73;;
20207;SDS011;10263;48.716;8.760;2023-03-01T08:48:51;16.87;;;11.73;;
20207;SDS011;10263;48.716;8.760;2023-03-01T08:51:18;16.13;;;11.20;;
20207;SDS011;10263;48.716;8.760;2023-03-01T08:53:45;16.07;;;11.97;;
20207;SDS011;10263;48.716;8.760;2023-03-01T08:56:14;17.53;;;11.53;;
20207;SDS011;10263;48.716;8.760;2023-03-01T08:58:43;17.87;;;11.10;;
20207;SDS011;10263;48.716;8.760;2023-03-01T09:01:10;13.87;;;10.33;;
20207;SDS011;10263;48.716;8.760;2023-03-01T09:03:39;17.87;;;12.70;;
20207;SDS011;10263;48.716;8.760;2023-03-01T09:06:06;17.13;;;12.00;;
20207;SDS011;10263;48.716;8.760;2023-03-01T09:08:34;16.17;;;11.47;;
20207;SDS011;10263;48.716;8.760;2023-03-01T09:11:02;16.17;;;11.87;;
20207;SDS011;10263;48.716;8.760;2023-03-01T09:13:30;15.87;;;11.27;;
20207;SDS011;10263;48.716;8.760;2023-03-01T09:15:57;16.13;;;11.67;;
20207;SDS011;10263;48.716;8.760;2023-03-01T09:18:24;17.50;;;11.83;;
20207;SDS011;10263;48.716;8.760;2023-03-01T09:20:51;18.47;;;11.23;;
20207;SDS011;10263;48.716;8.760;2023-03-01T09:23:20;16.23;;;11.97;;
20207;SDS011;10263;48.716;8.760;2023-03-01T09:25:46;16.03;;;11.87;;
20207;SDS011;10263;48.716;8.760;2023-03-01T09:28:13;14.17;;;10.83;;
20207;SDS011;10263;48.716;8.760;2023-03-01T09:30:41;14.90;;;10.47;;
20207;SDS011;10263;48.716;8.760;2023-03-01T09:33:08;14.87;;;11.23;;
20207;SDS011;10263;48.716;8.760;2023-03-01T09:35:39;15.97;;;11.50;;
20207;SDS011;10263;48.716;8.760;2023-03-01T09:38:11;18.13;;;12.07;;
20207;SDS011;10263;48.716;8.760;2023-03-01T09:40:41;15.03;;;11.70;;
20207;SDS011;10263;48.716;8.760;2023-03-01T09:43:12;15.27;;;11.13;;
20207;SDS011;10263;48.716;8.760;2023-03-01T09:45:48;15.50;;;11.17;;
20207;SDS011;10263;48.716;8.760;2023-03-01T09:48:19;15.40;;;11.27;;
20207;SDS011;10263;48.716;8.760;2023-03-01T09:50:50;17.57;;;11.57;;
20207;SDS011;10263;48.716;8.760;2023-03-01T09:53:18;14.60;;;10.73;;
20207;SDS011;10263;48.716;8.760;2023-03-01T09:55:48;15.00;;;11.13;;
20207;SDS011;10263;48.716;8.760;2023-03-01T09:58:26;14.47;;;11.23;;
20207;SDS011;10263;48.716;8.760;2023-03-01T10:01:03;15.60;;;11.83;;
20207;SDS011;10263;48.716;8.760;2023-03-01T10:03:42;14.60;;;11.00;;
20207;SDS011;10263;48.716;8.760;2023-03-01T10:06:14;13.97;;;11.70;;
20207;SDS011;10263;48.716;8.760;2023-03-01T10:08:51;17.93;;;10.90;;
20207;SDS011;10263;48.716;8.760;2023-03-01T10:11:23;15.00;;;12.13;;
20207;SDS011;10263;48.716;8.760;2023-03-01T10:13:55;16.40;;;11.07;;
20207;SDS011;10263;48.716;8.760;2023-03-01T10:16:27;15.23;;;10.97;;
20207;SDS011;10263;48.716;8.760;2023-03-01T10:19:00;15.80;;;11.17;;
20207;SDS011;10263;48.716;8.760;2023-03-01T10:21:29;15.77;;;11.00;;
20207;SDS011;10263;48.716;8.760;2023-03-01T10:23:58;14.27;;;10.70;;
20207;SDS011;10263;48.716;8.760;2023-03-01T10:26:40;13.23;;;10.83;;
20207;SDS011;10263;48.716;8.760;2023-03-01T10:29:13;13.30;;;11.33;;
20207;SDS011;10263;48.716;8.760;2023-03-01T10:31:43;15.13;;;10.67;;
20207;SDS011;10263;48.716;8.760;2023-03-01T10:34:12;12.40;;;10.70;;
20207;SDS011;10263;48.716;8.760;2023-03-01T10:36:41;13.43;;;10.57;;
20207;SDS011;10263;48.716;8.760;2023-03-01T10:39:13;13.83;;;11.20;;
20207;SDS011;10263;48.716;8.760;2023-03-01T10:44:40;13.70;;;11.23;;
20207;SDS011;10263;48.716;8.760;2023-03-01T10:47:17;13.13;;;10.70;;
20207;SDS011;10263;48.716;8.760;2023-03-01T10:49:57;13.83;;;11.57;;
20207;SDS011;10263;48.716;8.760;2023-03-01T10:52:26;16.50;;;12.03;;
20207;SDS011;10263;48.716;8.760;2023-03-01T10:54:56;16.97;;;12.43;;
20207;SDS011;10263;48.716;8.760;2023-03-01T10:57:34;13.90;;;11.77;;
20207;SDS011;10263;48.716;8.760;2023-03-01T11:00:17;13.73;;;10.70;;
20207;SDS011;10263;48.716;8.760;2023-03-01T11:02:49;13.83;;;12.33;;
20207;SDS011;10263;48.716;8.760;2023-03-01T11:05:27;13.53;;;11.80;;
20207;SDS011;10263;48.716;8.760;2023-03-01T11:07:56;14.20;;;11.30;;
20207;SDS011;10263;48.716;8.760;2023-03-01T11:10:25;12.80;;;10.70;;
20207;SDS011;10263;48.716;8.760;2023-03-01T11:12:52;13.20;;;11.60;;
20207;SDS011;10263;48.716;8.760;2023-03-01T11:15:31;13.40;;;11.50;;
20207;SDS011;10263;48.716;8.760;2023-03-01T11:17:59;12.23;;;10.90;;
20207;SDS011;10263;48.716;8.760;2023-03-01T11:20:28;13.60;;;11.13;;
20207;SDS011;10263;48.716;8.760;2023-03-01T11:22:58;16.73;;;11.47;;
20207;SDS011;10263;48.716;8.760;2023-03-01T11:25:30;13.00;;;10.95;;
20207;SDS011;10263;48.716;8.760;2023-03-01T11:28:00;12.47;;;11.13;;
20207;SDS011;10263;48.716;8.760;2023-03-01T11:30:30;12.98;;;11.63;;
20207;SDS011;10263;48.716;8.760;2023-03-01T11:33:05;14.63;;;12.38;;
20207;SDS011;10263;48.716;8.760;2023-03-01T11:35:42;14.05;;;11.15;;
20207;SDS011;10263;48.716;8.760;2023-03-01T11:38:18;11.82;;;10.40;;
20207;SDS011;10263;48.716;8.760;2023-03-01T11:40:49;13.70;;;11.85;;
20207;SDS011;10263;48.716;8.760;2023-03-01T11:43:26;12.45;;;11.15;;
20207;SDS011;10263;48.716;8.760;2023-03-01T11:46:07;13.98;;;12.13;;
20207;SDS011;10263;48.716;8.760;2023-03-01T11:48:53;12.93;;;11.18;;
20207;SDS011;10263;48.716;8.760;2023-03-01T11:51:32;12.88;;;10.63;;
20207;SDS011;10263;48.716;8.760;2023-03-01T11:54:09;13.32;;;11.65;;
20207;SDS011;10263;48.716;8.760;2023-03-01T11:56:45;13.48;;;12.07;;
20207;SDS011;10263;48.716;8.760;2023-03-01T11:59:21;14.45;;;11.85;;
20207;SDS011;10263;48.716;8.760;2023-03-01T12:02:09;13.20;;;10.98;;
20207;SDS011;10263;48.716;8.760;2023-03-01T12:05:03;14.43;;;11.52;;
20207;SDS011;10263;48.716;8.760;2023-03-01T12:07:52;12.65;;;10.77;;
20207;SDS011;10263;48.716;8.760;2023-03-01T12:10:24;13.13;;;11.77;;
20207;SDS011;10263;48.716;8.760;2023-03-01T12:15:54;13.75;;;11.02;;
20207;SDS011;10263;48.716;8.760;2023-03-01T12:19:10;13.80;;;11.23;;
20207;SDS011;10263;48.716;8.760;2023-03-01T12:21:57;12.85;;;11.55;;
20207;SDS011;10263;48.716;8.760;2023-03-01T12:24:42;15.43;;;12.50;;
20207;SDS011;10263;48.716;8.760;2023-03-01T12:27:29;15.48;;;11.75;;
20207;SDS011;10263;48.716;8.760;2023-03-01T12:30:10;12.30;;;11.00;;
20207;SDS011;10263;48.716;8.760;2023-03-01T12:32:52;12.43;;;10.90;;
20207;SDS011;10263;48.716;8.760;2023-03-01T12:35:35;13.68;;;11.48;;
20207;SDS011;10263;48.716;8.760;2023-03-01T12:43:58;13.75;;;10.70;;
20207;SDS011;10263;48.716;8.760;2023-03-01T12:46:36;12.52;;;10.95;;
20207;SDS011;10263;48.716;8.760;2023-03-01T12:49:13;12.63;;;11.00;;
20207;SDS011;10263;48.716;8.760;2023-03-01T12:51:42;12.15;;;10.95;;
20207;SDS011;10263;48.716;8.760;2023-03-01T12:54:19;11.73;;;10.48;;
20207;SDS011;10263;48.716;8.760;2023-03-01T12:56:52;12.43;;;11.10;;
20207;SDS011;10263;48.716;8.760;2023-03-01T12:59:21;12.90;;;10.82;;
20207;SDS011;10263;48.716;8.760;2023-03-01T13:01:55;13.15;;;10.63;;
20207;SDS011;10263;48.716;8.760;2023-03-01T13:04:33;15.75;;;13.02;;
20207;SDS011;10263;48.716;8.760;2023-03-01T13:07:15;13.40;;;11.55;;
20207;SDS011;10263;48.716;8.760;2023-03-01T13:09:54;13.32;;;11.15;;
20207;SDS011;10263;48.716;8.760;2023-03-01T13:15:24;13.52;;;11.30;;
20207;SDS011;10263;48.716;8.760;2023-03-01T13:17:52;13.32;;;11.93;;
20207;SDS011;10263;48.716;8.760;2023-03-01T13:20:21;14.88;;;12.95;;
20207;SDS011;10263;48.716;8.760;2023-03-01T13:23:00;12.95;;;10.77;;
20207;SDS011;10263;48.716;8.760;2023-03-01T13:25:31;13.55;;;10.75;;
20207;SDS011;10263;48.716;8.760;2023-03-01T13:31:03;12.35;;;11.05;;
20207;SDS011;10263;48.716;8.760;2023-03-01T13:33:41;12.07;;;10.73;;
20207;SDS011;10263;48.716;8.760;2023-03-01T13:36:10;14.30;;;11.38;;
20207;SDS011;10263;48.716;8.760;2023-03-01T13:39:01;11.68;;;10.27;;
20207;SDS011;10263;48.716;8.760;2023-03-01T13:41:49;12.25;;;10.80;;
20207;SDS011;10263;48.716;8.760;2023-03-01T13:44:20;11.55;;;10.35;;
20207;SDS011;10263;48.716;8.760;2023-03-01T13:46:51;12.60;;;10.27;;
20207;SDS011;10263;48.716;8.760;2023-03-01T13:49:19;12.05;;;10.77;;
20207;SDS011;10263;48.716;8.760;2023-03-01T13:51:49;12.05;;;10.85;;
20207;SDS011;10263;48.716;8.760;2023-03-01T13:54:22;12.73;;;9.93;;
20207;SDS011;10263;48.716;8.760;2023-03-01T13:56:52;11.23;;;10.07;;
20207;SDS011;10263;48.716;8.760;2023-03-01T13:59:21;11.93;;;10.70;;
20207;SDS011;10263;48.716;8.760;2023-03-01T14:01:52;12.82;;;10.98;;
20207;SDS011;10263;48.716;8.760;2023-03-01T14:04:20;11.60;;;10.10;;
20207;SDS011;10263;48.716;8.760;2023-03-01T14:06:48;13.50;;;11.95;;
20207;SDS011;10263;48.716;8.760;2023-03-01T14:09:16;13.32;;;11.02;;
20207;SDS011;10263;48.716;8.760;2023-03-01T14:14:55;12.73;;;10.77;;
20207;SDS011;10263;48.716;8.760;2023-03-01T14:17:37;11.98;;;10.88;;
20207;SDS011;10263;48.716;8.760;2023-03-01T14:20:19;13.88;;;11.10;;
20207;SDS011;10263;48.716;8.760;2023-03-01T14:22:48;12.38;;;11.18;;
20207;SDS011;10263;48.716;8.760;2023-03-01T14:25:32;13.23;;;11.82;;
20207;SDS011;10263;48.716;8.760;2023-03-01T14:28:03;12.32;;;10.98;;
20207;SDS011;10263;48.716;8.760;2023-03-01T14:30:41;12.68;;;11.50;;
20207;SDS011;10263;48.716;8.760;2023-03-01T14:33:18;12.93;;;11.60;;
20207;SDS011;10263;48.716;8.760;2023-03-01T14:35:57;13.07;;;11.77;;
20207;SDS011;10263;48.716;8.760;2023-03-01T14:38:29;13.00;;;11.68;;
20207;SDS011;10263;48.716;8.760;2023-03-01T14:41:02;13.43;;;12.13;;
20207;SDS011;10263;48.716;8.760;2023-03-01T14:43:33;12.98;;;11.68;;
20207;SDS011;10263;48.716;8.760;2023-03-01T14:46:03;13.25;;;11.95;;
20207;SDS011;10263;48.716;8.760;2023-03-01T14:48:30;12.77;;;11.48;;
20207;SDS011;10263;48.716;8.760;2023-03-01T14:50:58;12.98;;;11.25;;
20207;SDS011;10263;48.716;8.760;2023-03-01T14:53:26;12.80;;;11.57;;
20207;SDS011;10263;48.716;8.760;2023-03-01T14:55:55;12.90;;;11.60;;
20207;SDS011;10263;48.716;8.760;2023-03-01T14:58:28;14.50;;;12.77;;
20207;SDS011;10263;48.716;8.760;2023-03-01T15:00:58;13.20;;;11.88;;
20207;SDS011;10263;48.716;8.760;2023-03-01T15:03:28;13.95;;;12.43;;